createdAt,value
2023-11-24T00:00:18.901Z,101461.28
2023-11-24T00:02:45.432Z,101463.34
2023-11-24T00:05:11.903Z,101458.13
2023-11-24T00:07:40.744Z,101461.63
2023-11-24T00:10:08.238Z,101458.31
2023-11-24T00:12:34.809Z,101457.81
2023-11-24T00:15:04.831Z,101457.81
2023-11-24T00:17:31.463Z,101448.41
2023-11-24T00:19:58.033Z,101450.41
2023-11-24T00:22:24.683Z,101442.53
2023-11-24T00:24:53.159Z,101442.75
2023-11-24T00:27:20.960Z,101436.66
2023-11-24T00:29:50.231Z,101419.03
2023-11-24T00:32:17.324Z,101424.91
2023-11-24T00:34:44.131Z,101422.22
2023-11-24T00:37:10.660Z,101420.50
2023-11-24T00:39:38.059Z,101405.75
2023-11-24T00:42:04.610Z,101402.06
2023-11-24T00:44:31.103Z,101400.25
2023-11-24T00:46:57.752Z,101384.28
2023-11-24T00:49:24.296Z,101398.06
2023-11-24T00:51:50.843Z,101398.06
2023-11-24T00:54:17.332Z,101405.44
2023-11-24T00:56:45.175Z,101397.91
2023-11-24T00:59:11.938Z,101401.75
2023-11-24T01:01:38.444Z,101388.66
2023-11-24T01:04:05.568Z,101389.19
2023-11-24T01:06:32.950Z,101395.06
2023-11-24T01:08:59.456Z,101397.06
2023-11-24T01:11:25.858Z,101396.25
2023-11-24T01:13:52.332Z,101389.38
2023-11-24T01:16:18.841Z,101388.91
2023-11-24T01:18:45.624Z,101396.63
2023-11-24T01:21:13.040Z,101388.22
2023-11-24T01:23:39.491Z,101385.34
2023-11-24T01:26:06.617Z,101389.41
2023-11-24T01:28:33.282Z,101391.41
2023-11-24T01:31:00.122Z,101398.28
2023-11-24T01:33:26.793Z,101394.78
2023-11-24T01:35:54.867Z,101400.34
2023-11-24T01:38:21.347Z,101404.38
2023-11-24T01:40:47.832Z,101408.09
2023-11-24T01:43:14.853Z,101416.81
2023-11-24T01:45:41.532Z,101411.59
2023-11-24T01:48:09.326Z,101399.69
2023-11-24T01:50:38.912Z,101401.34
2023-11-24T01:53:06.306Z,101392.63
2023-11-24T01:55:32.834Z,101382.22
2023-11-24T01:57:59.605Z,101387.41
2023-11-24T02:00:27.218Z,101380.22
2023-11-24T02:02:53.828Z,101382.91
2023-11-24T02:05:22.296Z,101369.94
2023-11-24T02:07:49.634Z,101381.38
2023-11-24T02:10:17.791Z,101386.75
2023-11-24T02:12:44.317Z,101384.41
2023-11-24T02:15:11.107Z,101380.06
2023-11-24T02:17:38.008Z,101382.06
2023-11-24T02:20:08.999Z,101380.06
2023-11-24T02:22:41.007Z,101373.38
2023-11-24T02:25:08.094Z,101363.47
2023-11-24T02:27:34.645Z,101364.13
2023-11-24T02:30:01.407Z,101358.75
2023-11-24T02:32:27.829Z,101345.28
2023-11-24T02:34:54.612Z,101351.28
2023-11-24T02:37:21.084Z,101366.41
2023-11-24T02:39:48.910Z,101373.16
2023-11-24T02:42:15.405Z,101370.84
2023-11-24T02:44:41.882Z,101374.03
2023-11-24T02:47:08.369Z,101361.97
2023-11-24T02:49:36.718Z,101373.56
2023-11-24T02:52:04.022Z,101379.63
2023-11-24T02:54:31.739Z,101363.34
2023-11-24T02:56:58.368Z,101367.03
2023-11-24T02:59:25.157Z,101356.97
2023-11-24T03:01:52.611Z,101347.53
2023-11-24T03:04:19.856Z,101345.38
2023-11-24T03:06:46.442Z,101336.50
2023-11-24T03:09:14.893Z,101333.84
2023-11-24T03:11:41.543Z,101330.00
2023-11-24T03:14:08.560Z,101333.69
2023-11-24T03:16:35.061Z,101328.16
2023-11-24T03:19:01.660Z,101328.47
2023-11-24T03:21:28.391Z,101332.16
2023-11-24T03:23:54.889Z,101330.31
2023-11-24T03:26:21.977Z,101339.88
2023-11-24T03:28:48.609Z,101336.50
2023-11-24T03:31:14.999Z,101315.41
2023-11-24T03:33:41.538Z,101300.31
2023-11-24T03:36:08.190Z,101303.00
2023-11-24T03:38:34.881Z,101311.03
2023-11-24T03:41:02.731Z,101292.59
2023-11-24T03:43:29.215Z,101285.56
2023-11-24T03:45:57.659Z,101293.94
2023-11-24T03:48:24.260Z,101294.25
2023-11-24T03:50:52.315Z,101294.94
2023-11-24T03:53:19.262Z,101317.75
2023-11-24T03:55:46.580Z,101340.53
2023-11-24T03:58:13.015Z,101334.63
2023-11-24T04:00:39.469Z,101328.75
2023-11-24T04:03:06.166Z,101316.53
2023-11-24T04:05:33.295Z,101315.50
2023-11-24T04:07:59.816Z,101306.28
2023-11-24T04:10:27.184Z,101295.41
2023-11-24T04:12:53.716Z,101297.38
2023-11-24T04:15:20.528Z,101292.72
2023-11-24T04:17:47.132Z,101287.03
2023-11-24T04:20:13.795Z,101297.91
2023-11-24T04:22:40.326Z,101290.06
2023-11-24T04:25:07.307Z,101287.69
2023-11-24T04:27:33.878Z,101291.22
2023-11-24T04:30:00.382Z,101291.22
2023-11-24T04:32:26.921Z,101265.75
2023-11-24T04:34:53.552Z,101264.25
2023-11-24T04:37:20.858Z,101267.78
2023-11-24T04:39:47.562Z,101284.88
2023-11-24T04:42:14.272Z,101284.50
2023-11-24T04:44:40.724Z,101271.59
2023-11-24T04:47:07.716Z,101269.59
2023-11-24T04:49:34.174Z,101266.59
2023-11-24T04:52:01.234Z,101259.53
2023-11-24T04:54:27.779Z,101269.72
2023-11-24T04:56:57.577Z,101261.69
2023-11-24T04:59:27.879Z,101260.69
2023-11-24T05:01:54.669Z,101242.59
2023-11-24T05:04:21.343Z,101251.81
2023-11-24T05:06:48.265Z,101251.16
2023-11-24T05:09:15.455Z,101243.31
2023-11-24T05:11:41.940Z,101262.72
2023-11-24T05:14:08.495Z,101268.41
2023-11-24T05:16:35.253Z,101233.75
2023-11-24T05:19:01.905Z,101228.22
2023-11-24T05:21:28.467Z,101216.66
2023-11-24T05:23:55.015Z,101209.94
2023-11-24T05:26:23.636Z,101222.69
2023-11-24T05:28:50.090Z,101213.97
2023-11-24T05:31:16.706Z,101210.13
2023-11-24T05:33:43.474Z,101230.56
2023-11-24T05:36:10.766Z,101231.72
2023-11-24T05:38:40.868Z,101234.06
2023-11-24T05:41:07.615Z,101213.44
2023-11-24T05:43:35.144Z,101206.94
2023-11-24T05:46:01.924Z,101212.94
2023-11-24T05:48:30.102Z,101225.19
2023-11-24T05:50:57.328Z,101223.53
2023-11-24T05:53:23.845Z,101238.75
2023-11-24T05:55:50.275Z,101265.38
2023-11-24T05:58:16.761Z,101262.97
2023-11-24T06:00:43.292Z,101244.41
2023-11-24T06:03:11.270Z,101230.66
2023-11-24T06:05:37.750Z,101228.97
2023-11-24T06:08:05.908Z,101213.41
2023-11-24T06:10:32.624Z,101219.59
2023-11-24T06:12:59.213Z,101224.13
2023-11-24T06:15:27.006Z,101238.75
2023-11-24T06:17:53.538Z,101260.16
2023-11-24T06:20:20.098Z,101245.22
2023-11-24T06:22:46.553Z,101236.97
2023-11-24T06:25:16.105Z,101232.44
2023-11-24T06:27:44.020Z,101232.41
2023-11-24T06:30:10.948Z,101232.75
2023-11-24T06:32:37.525Z,101222.19
2023-11-24T06:35:07.592Z,101216.34
2023-11-24T06:37:34.408Z,101209.00
2023-11-24T06:40:03.875Z,101210.88
2023-11-24T06:42:31.721Z,101197.13
2023-11-24T06:44:58.398Z,101198.13
2023-11-24T06:47:25.108Z,101180.03
2023-11-24T06:49:51.732Z,101188.06
2023-11-24T06:52:18.713Z,101194.59
2023-11-24T06:54:45.860Z,101195.28
2023-11-24T06:57:12.660Z,101216.72
2023-11-24T06:59:39.138Z,101220.22
2023-11-24T07:02:05.835Z,101223.91
2023-11-24T07:04:32.388Z,101233.59
2023-11-24T07:06:59.414Z,101221.19
2023-11-24T07:09:26.131Z,101223.88
2023-11-24T07:11:52.730Z,101222.88
2023-11-24T07:14:19.369Z,101212.66
2023-11-24T07:16:45.848Z,101208.78
2023-11-24T07:19:12.512Z,101201.78
2023-11-24T07:21:39.918Z,101212.00
2023-11-24T07:24:06.849Z,101223.72
2023-11-24T07:26:33.410Z,101250.09
2023-11-24T07:28:59.921Z,101237.47
2023-11-24T07:31:26.537Z,101236.63
2023-11-24T07:33:53.237Z,101236.25
2023-11-24T07:36:22.721Z,101237.50
2023-11-24T07:38:49.398Z,101244.72
2023-11-24T07:41:16.866Z,101237.22
2023-11-24T07:43:43.494Z,101212.59
2023-11-24T07:46:11.853Z,101215.28
2023-11-24T07:48:38.810Z,101222.16
2023-11-24T07:51:06.687Z,101239.22
2023-11-24T07:53:34.186Z,101239.75
2023-11-24T07:56:01.168Z,101234.69
2023-11-24T07:58:30.054Z,101237.50
2023-11-24T08:00:56.853Z,101243.44
2023-11-24T08:03:25.343Z,101223.56
2023-11-24T08:05:53.418Z,101210.84
2023-11-24T08:08:19.870Z,101211.50
2023-11-24T08:10:46.360Z,101202.13
2023-11-24T08:13:13.009Z,101200.97
2023-11-24T08:15:39.541Z,101210.53
2023-11-24T08:18:06.212Z,101233.16
2023-11-24T08:20:32.710Z,101246.94
2023-11-24T08:22:59.590Z,101226.88
2023-11-24T08:25:26.122Z,101232.13
2023-11-24T08:27:52.618Z,101228.75
2023-11-24T08:30:19.176Z,101212.94
2023-11-24T08:32:47.813Z,101223.69
2023-11-24T08:35:15.381Z,101212.00
2023-11-24T08:37:42.524Z,101202.94
2023-11-24T08:40:12.448Z,101197.75
2023-11-24T08:42:39.820Z,101191.97
2023-11-24T08:45:07.590Z,101198.47
2023-11-24T08:47:34.078Z,101190.78
2023-11-24T08:50:00.982Z,101179.56
2023-11-24T08:52:27.704Z,101176.91
2023-11-24T08:54:54.264Z,101179.09
2023-11-24T08:57:20.763Z,101165.75
2023-11-24T08:59:47.204Z,101161.75
2023-11-24T09:02:13.858Z,101168.44
2023-11-24T09:04:40.620Z,101169.94
2023-11-24T09:07:07.379Z,101157.75
2023-11-24T09:09:34.542Z,101174.53
2023-11-24T09:12:01.702Z,101199.88
2023-11-24T09:14:28.529Z,101195.03
2023-11-24T09:16:55.196Z,101181.81
2023-11-24T09:19:21.797Z,101182.47
2023-11-24T09:21:49.580Z,101169.81
2023-11-24T09:24:16.618Z,101185.84
2023-11-24T09:26:44.506Z,101172.00
2023-11-24T09:29:11.353Z,101177.56
2023-11-24T09:31:38.343Z,101165.56
2023-11-24T09:34:05.008Z,101155.88
2023-11-24T09:36:31.702Z,101153.72
2023-11-24T09:38:58.163Z,101148.28
2023-11-24T09:41:24.710Z,101154.31
2023-11-24T09:43:51.280Z,101149.34
2023-11-24T09:46:17.950Z,101145.69
2023-11-24T09:48:46.136Z,101147.72
2023-11-24T09:51:13.724Z,101164.13
2023-11-24T09:53:41.335Z,101177.34
2023-11-24T09:56:08.729Z,101162.38
2023-11-24T09:58:35.503Z,101163.63
2023-11-24T10:01:16.462Z,101164.75
2023-11-24T10:03:47.275Z,101143.44
2023-11-24T10:06:14.438Z,101144.59
2023-11-24T10:08:41.506Z,101097.28
2023-11-24T10:11:16.601Z,101114.25
2023-11-24T10:13:44.781Z,101116.31
2023-11-24T10:16:12.557Z,101114.19
2023-11-24T10:18:42.408Z,101125.47
2023-11-24T10:21:19.617Z,101138.72
2023-11-24T10:23:54.046Z,101153.09
2023-11-24T10:26:21.553Z,101156.56
2023-11-24T10:28:48.238Z,101141.16
2023-11-24T10:31:15.189Z,101139.31
2023-11-24T10:33:42.232Z,101128.16
2023-11-24T10:36:10.120Z,101120.19
2023-11-24T10:38:40.989Z,101115.81
2023-11-24T10:41:20.815Z,101121.84
2023-11-24T10:43:52.481Z,101111.81
2023-11-24T10:46:22.080Z,101104.97
2023-11-24T10:48:53.961Z,101102.00
2023-11-24T10:51:31.215Z,101097.50
2023-11-24T10:54:03.592Z,101092.50
2023-11-24T10:56:32.573Z,101074.81
2023-11-24T10:59:00.244Z,101080.66
2023-11-24T11:01:28.515Z,101083.16
2023-11-24T11:04:00.117Z,101073.31
2023-11-24T11:06:45.347Z,101074.31
2023-11-24T11:09:17.306Z,101082.38
2023-11-24T11:12:20.258Z,101089.91
2023-11-24T11:14:47.860Z,101092.56
2023-11-24T11:17:20.826Z,101080.72
2023-11-24T11:20:08.394Z,101081.03
2023-11-24T11:22:37.800Z,101084.22
2023-11-24T11:25:27.003Z,101090.72
2023-11-24T11:27:56.442Z,101087.56
2023-11-24T11:30:27.285Z,101078.88
2023-11-24T11:33:13.611Z,101053.75
2023-11-24T11:35:43.459Z,101056.25
2023-11-24T11:38:12.962Z,101059.78
2023-11-24T11:40:39.492Z,101048.88
2023-11-24T11:43:10.795Z,101048.19
2023-11-24T11:45:48.030Z,101040.81
2023-11-24T11:48:14.986Z,101054.56
2023-11-24T11:50:58.513Z,101046.41
2023-11-24T11:53:34.932Z,101048.41
2023-11-24T11:56:07.423Z,101050.25
2023-11-24T11:58:35.949Z,101044.06
2023-11-24T12:01:05.916Z,101037.16
2023-11-24T12:03:34.392Z,101041.03
2023-11-24T12:06:06.924Z,101066.13
2023-11-24T12:08:43.719Z,101077.66
2023-11-24T12:11:11.710Z,101061.06
2023-11-24T12:13:40.641Z,101054.53
2023-11-24T12:16:07.923Z,101043.66
2023-11-24T12:18:34.470Z,101035.78
2023-11-24T12:21:00.950Z,101031.59
2023-11-24T12:23:27.848Z,101036.94
2023-11-24T12:25:55.907Z,101033.44
2023-11-24T12:28:23.331Z,101047.19
2023-11-24T12:30:49.939Z,101060.25
2023-11-24T12:33:20.413Z,101074.59
2023-11-24T12:35:55.977Z,101055.66
2023-11-24T12:38:23.079Z,101034.22
2023-11-24T12:40:51.761Z,101035.25
2023-11-24T12:43:20.299Z,101032.25
2023-11-24T12:45:52.777Z,101031.53
2023-11-24T12:48:23.612Z,101028.03
2023-11-24T12:50:51.288Z,101003.47
2023-11-24T12:53:19.920Z,100998.78
2023-11-24T12:55:46.770Z,101003.78
2023-11-24T12:58:13.346Z,101003.31
2023-11-24T13:00:40.623Z,101005.66
2023-11-24T13:03:08.248Z,101006.34
2023-11-24T13:05:35.554Z,101005.88
2023-11-24T13:08:02.319Z,101003.88
2023-11-24T13:10:31.352Z,101003.88
2023-11-24T13:12:59.751Z,100990.84
2023-11-24T13:15:26.814Z,100995.69
2023-11-24T13:17:54.558Z,101018.44
2023-11-24T13:20:22.081Z,101016.91
2023-11-24T13:22:49.598Z,101012.06
2023-11-24T13:25:17.336Z,101013.56
2023-11-24T13:27:44.076Z,100997.50
2023-11-24T13:30:12.664Z,101004.50
2023-11-24T13:32:43.003Z,101000.78
2023-11-24T13:35:16.494Z,101006.00
2023-11-24T13:37:45.611Z,100999.81
2023-11-24T13:40:13.708Z,100994.13
2023-11-24T13:42:40.678Z,100989.97
2023-11-24T13:45:07.736Z,100983.59
2023-11-24T13:47:36.289Z,100971.75
2023-11-24T13:50:05.335Z,100963.72
2023-11-24T13:52:34.680Z,100970.41
2023-11-24T13:55:01.738Z,100968.72
2023-11-24T13:57:28.514Z,100952.03
2023-11-24T13:59:55.640Z,100966.41
2023-11-24T14:02:22.888Z,100967.91
2023-11-24T14:04:51.316Z,100960.72
2023-11-24T14:07:20.912Z,100960.91
2023-11-24T14:09:47.505Z,100959.75
2023-11-24T14:12:15.351Z,100960.72
2023-11-24T14:14:42.518Z,100959.75
2023-11-24T14:17:09.008Z,100969.63
2023-11-24T14:19:36.387Z,101001.22
2023-11-24T14:22:05.692Z,100964.72
2023-11-24T14:24:33.813Z,100968.91
2023-11-24T14:27:00.372Z,100974.56
2023-11-24T14:29:29.009Z,100986.59
2023-11-24T14:31:55.634Z,101007.97
2023-11-24T14:34:22.448Z,101022.69
2023-11-24T14:36:49.344Z,101009.53
2023-11-24T14:39:26.392Z,101015.00
2023-11-24T14:41:56.504Z,101001.44
2023-11-24T14:44:23.128Z,100994.88
2023-11-24T14:46:52.149Z,100997.38
2023-11-24T14:49:18.732Z,101004.72
2023-11-24T14:51:46.425Z,100995.19
2023-11-24T14:54:17.348Z,100992.53
2023-11-24T14:56:44.689Z,100999.06
2023-11-24T14:59:11.916Z,100981.50
2023-11-24T15:01:39.916Z,100997.56
2023-11-24T15:04:10.115Z,100998.91
2023-11-24T15:06:38.230Z,100995.38
2023-11-24T15:09:05.242Z,100999.25
2023-11-24T15:11:38.489Z,101010.47
2023-11-24T15:14:14.720Z,101035.66
2023-11-24T15:16:53.887Z,101064.53
2023-11-24T15:19:23.315Z,101043.81
2023-11-24T15:21:50.102Z,101045.56
2023-11-24T15:24:16.592Z,101030.81
2023-11-24T15:26:43.059Z,101010.06
2023-11-24T15:29:11.163Z,101009.69
2023-11-24T15:31:40.341Z,101004.66
2023-11-24T15:34:07.158Z,100997.03
2023-11-24T15:36:35.157Z,101001.91
2023-11-24T15:39:04.881Z,100994.06
2023-11-24T15:41:48.578Z,101006.81
2023-11-24T15:44:23.970Z,100993.16
2023-11-24T15:46:50.527Z,101020.38
2023-11-24T15:49:19.097Z,101015.53
2023-11-24T15:51:52.876Z,101015.75
2023-11-24T15:54:21.292Z,101002.75
2023-11-24T15:56:47.832Z,101012.06
2023-11-24T15:59:23.637Z,101009.56
2023-11-24T16:01:58.020Z,101022.56
2023-11-24T16:04:25.377Z,101033.09
2023-11-24T16:06:57.768Z,101025.91
2023-11-24T16:09:26.815Z,101021.25
2023-11-24T16:12:15.192Z,101021.03
2023-11-24T16:14:44.111Z,101021.78
2023-11-24T16:17:10.593Z,101029.50
2023-11-24T16:19:37.331Z,101043.50
2023-11-24T16:22:04.256Z,101030.75
2023-11-24T16:24:30.823Z,101014.56
2023-11-24T16:26:57.408Z,101006.03
2023-11-24T16:29:24.619Z,101000.69
2023-11-24T16:31:52.242Z,101007.06
2023-11-24T16:34:21.662Z,101018.41
2023-11-24T16:36:48.309Z,101005.94
2023-11-24T16:39:20.486Z,101012.63
2023-11-24T16:41:47.597Z,100993.94
2023-11-24T16:44:14.004Z,100994.78
2023-11-24T16:46:41.834Z,100981.72
2023-11-24T16:49:08.945Z,100979.91
2023-11-24T16:51:35.516Z,100979.75
2023-11-24T16:54:03.353Z,100988.78
2023-11-24T16:56:29.958Z,100987.16
2023-11-24T16:58:57.723Z,100991.31
2023-11-24T17:01:24.343Z,100984.47
2023-11-24T17:03:50.920Z,100997.19
2023-11-24T17:06:17.496Z,100991.88
2023-11-24T17:08:44.059Z,100990.38
2023-11-24T17:11:11.997Z,101007.50
2023-11-24T17:13:38.695Z,101017.28
2023-11-24T17:16:06.641Z,100996.00
2023-11-24T17:18:34.606Z,100983.81
2023-11-24T17:21:01.320Z,100995.28
2023-11-24T17:23:29.420Z,100985.41
2023-11-24T17:25:56.019Z,101002.91
2023-11-24T17:28:22.602Z,101003.41
2023-11-24T17:30:49.118Z,100996.13
2023-11-24T17:33:15.843Z,101000.47
2023-11-24T17:35:43.038Z,101000.50
2023-11-24T17:38:09.544Z,101009.06
2023-11-24T17:40:35.987Z,101007.91
2023-11-24T17:43:02.563Z,101012.72
2023-11-24T17:45:29.285Z,101006.59
2023-11-24T17:47:55.848Z,101002.97
2023-11-24T17:50:24.482Z,100991.00
2023-11-24T17:52:51.114Z,101009.19
2023-11-24T17:55:21.525Z,101007.03
2023-11-24T17:57:49.100Z,101024.44
2023-11-24T18:00:21.820Z,101019.44
2023-11-24T18:02:50.607Z,101028.00
2023-11-24T18:05:22.550Z,101025.63
2023-11-24T18:07:49.235Z,101032.31
2023-11-24T18:10:15.708Z,101035.84
2023-11-24T18:12:42.144Z,101039.88
2023-11-24T18:15:11.144Z,101022.31
2023-11-24T18:17:39.359Z,101013.44
2023-11-24T18:20:06.358Z,101019.63
2023-11-24T18:22:32.906Z,101027.34
2023-11-24T18:24:59.889Z,101032.72
2023-11-24T18:27:28.116Z,101038.91
2023-11-24T18:29:54.613Z,101025.53
2023-11-24T18:32:23.153Z,101042.75
2023-11-24T18:34:49.611Z,101040.59
2023-11-24T18:37:16.533Z,101053.31
2023-11-24T18:39:44.376Z,101044.13
2023-11-24T18:42:10.809Z,101041.13
2023-11-24T18:44:37.339Z,101044.25
2023-11-24T18:47:03.780Z,101038.59
2023-11-24T18:49:30.930Z,101046.25
2023-11-24T18:51:58.149Z,101051.78
2023-11-24T18:54:24.695Z,101058.28
2023-11-24T18:56:54.050Z,101062.66
2023-11-24T18:59:20.718Z,101043.25
2023-11-24T19:01:47.230Z,101054.44
2023-11-24T19:04:13.814Z,101066.19
2023-11-24T19:06:40.859Z,101069.66
2023-11-24T19:09:07.289Z,101058.78
2023-11-24T19:11:34.447Z,101068.66
2023-11-24T19:14:01.551Z,101077.81
2023-11-24T19:16:28.164Z,101071.84
2023-11-24T19:18:54.674Z,101103.72
2023-11-24T19:21:24.179Z,101145.50
2023-11-24T19:23:53.568Z,101106.81
2023-11-24T19:26:20.108Z,101099.44
2023-11-24T19:28:58.888Z,101108.13
2023-11-24T19:31:32.582Z,101096.66
2023-11-24T19:33:59.537Z,101081.88
2023-11-24T19:36:30.293Z,101094.53
2023-11-24T19:38:56.719Z,101081.88
2023-11-24T19:41:23.239Z,101089.72
2023-11-24T19:43:49.770Z,101086.22
2023-11-24T19:46:16.538Z,101094.75
2023-11-24T19:48:43.040Z,101087.28
2023-11-24T19:51:09.569Z,101104.81
2023-11-24T19:53:36.012Z,101093.84
2023-11-24T19:56:02.738Z,101101.53
2023-11-24T19:58:29.236Z,101097.19
2023-11-24T20:00:55.805Z,101102.38
2023-11-24T20:03:22.374Z,101098.56
2023-11-24T20:05:48.899Z,101104.81
2023-11-24T20:08:15.421Z,101107.19
2023-11-24T20:10:42.151Z,101120.84
2023-11-24T20:13:08.694Z,101134.28
2023-11-24T20:15:35.743Z,101128.78
2023-11-24T20:18:02.320Z,101116.03
2023-11-24T20:20:29.151Z,101121.69
2023-11-24T20:22:56.666Z,101126.59
2023-11-24T20:25:23.150Z,101128.41
2023-11-24T20:27:49.651Z,101131.75
2023-11-24T20:30:16.863Z,101136.63
2023-11-24T20:32:43.273Z,101134.28
2023-11-24T20:35:10.499Z,101147.63
2023-11-24T20:37:37.274Z,101141.66
2023-11-24T20:40:04.491Z,101139.88
2023-11-24T20:42:31.015Z,101153.31
2023-11-24T20:44:58.080Z,101149.63
2023-11-24T20:47:24.546Z,101156.81
2023-11-24T20:49:51.512Z,101166.59
2023-11-24T20:52:17.974Z,101164.44
2023-11-24T20:54:45.934Z,101170.41
2023-11-24T20:57:12.519Z,101172.91
2023-11-24T20:59:38.944Z,101163.31
2023-11-24T21:02:05.494Z,101167.66
2023-11-24T21:04:32.108Z,101174.53
2023-11-24T21:07:00.744Z,101162.69
2023-11-24T21:09:27.259Z,101169.84
2023-11-24T21:11:53.724Z,101167.66
2023-11-24T21:14:20.204Z,101179.56
2023-11-24T21:16:46.653Z,101187.53
2023-11-24T21:19:14.606Z,101182.72
2023-11-24T21:21:42.606Z,101186.31
2023-11-24T21:24:09.661Z,101190.72
2023-11-24T21:26:36.120Z,101189.00
2023-11-24T21:29:04.125Z,101188.41
2023-11-24T21:31:30.542Z,101197.78
2023-11-24T21:33:57.108Z,101202.19
2023-11-24T21:36:23.621Z,101213.13
2023-11-24T21:38:50.129Z,101210.31
2023-11-24T21:41:22.347Z,101220.16
2023-11-24T21:43:49.759Z,101227.44
2023-11-24T21:46:23.139Z,101216.75
2023-11-24T21:48:50.346Z,101215.88
2023-11-24T21:51:19.695Z,101218.72
2023-11-24T21:53:46.300Z,101224.44
2023-11-24T21:56:13.087Z,101227.34
2023-11-24T21:58:39.564Z,101230.00
2023-11-24T22:01:06.213Z,101228.63
2023-11-24T22:03:33.514Z,101228.94
2023-11-24T22:06:00.353Z,101240.69
2023-11-24T22:08:26.897Z,101240.00
2023-11-24T22:10:54.088Z,101236.94
2023-11-24T22:13:20.865Z,101242.66
2023-11-24T22:15:50.037Z,101238.84
2023-11-24T22:18:17.777Z,101239.16
2023-11-24T22:20:44.294Z,101241.53
2023-11-24T22:23:10.849Z,101252.69
2023-11-24T22:25:37.813Z,101250.38
2023-11-24T22:28:04.741Z,101245.66
2023-11-24T22:30:31.497Z,101251.53
2023-11-24T22:32:58.129Z,101260.09
2023-11-24T22:35:25.518Z,101259.13
2023-11-24T22:37:51.998Z,101256.47
2023-11-24T22:40:19.012Z,101254.63
2023-11-24T22:42:46.420Z,101268.50
2023-11-24T22:45:13.069Z,101256.81
2023-11-24T22:47:42.658Z,101261.81
2023-11-24T22:50:11.152Z,101282.59
2023-11-24T22:52:38.624Z,101280.59
2023-11-24T22:55:06.768Z,101277.94
2023-11-24T22:57:33.781Z,101268.25
2023-11-24T23:00:00.435Z,101284.44
2023-11-24T23:02:27.525Z,101282.44
2023-11-24T23:04:53.974Z,101291.28
2023-11-24T23:07:21.124Z,101283.19
2023-11-24T23:09:47.684Z,101285.28
2023-11-24T23:12:14.956Z,101298.47
2023-11-24T23:14:41.638Z,101294.59
2023-11-24T23:17:08.970Z,101301.78
2023-11-24T23:19:36.125Z,101301.22
2023-11-24T23:22:05.508Z,101297.81
2023-11-24T23:24:31.985Z,101298.38
2023-11-24T23:26:58.497Z,101307.75
2023-11-24T23:29:24.943Z,101299.31
2023-11-24T23:31:51.489Z,101315.78
2023-11-24T23:34:18.056Z,101333.47
2023-11-24T23:36:44.516Z,101349.34
2023-11-24T23:39:11.238Z,101346.00
2023-11-24T23:41:37.726Z,101342.06
2023-11-24T23:44:05.386Z,101345.31
2023-11-24T23:46:32.066Z,101339.66
2023-11-24T23:48:58.717Z,101337.69
2023-11-24T23:51:25.840Z,101329.56
2023-11-24T23:53:52.918Z,101326.75
2023-11-24T23:56:20.325Z,101319.28
2023-11-24T23:58:46.771Z,101317.69
